Time;durP1;ratioP1;P1;durP2;ratioP2;P2;SDS_P1;SDS_P2;PMS_P1;PMS_P2;Temp;Humidity;BMP_temperature;BMP_pressure;BME280_temperature;BME280_humidity;BME280_pressure;Samples;Min_cycle;Max_cycle;Signal;HPM_P1;HPM_P2
2024/04/01 00:01:50;;;;;;;4.00;1.40;;;;;;;;;;6215640;23;19997;-86
2024/04/01 00:04:15;;;;;;;2.50;1.23;;;;;;;;;;6215501;23;20680;-86
2024/04/01 00:06:40;;;;;;;3.28;1.40;;;;;;;;;;6215540;23;20222;-87
2024/04/01 00:09:06;;;;;;;1.00;0.77;;;;;;;;;;6215690;23;20155;-87
2024/04/01 00:11:32;;;;;;;3.80;0.60;;;;;;;;;;6215910;23;20643;-87
2024/04/01 00:13:57;;;;;;;2.20;0.70;;;;;;;;;;6215655;23;20023;-87
2024/04/01 00:16:22;;;;;;;1.47;0.80;;;;;;;;;;6215258;23;20297;-87
2024/04/01 00:18:47;;;;;;;2.13;0.70;;;;;;;;;;6214967;23;20253;-87
2024/04/01 00:21:12;;;;;;;1.73;0.60;;;;;;;;;;6215465;23;20317;-87
2024/04/01 00:23:38;;;;;;;1.08;0.60;;;;;;;;;;6215531;23;20306;-87
2024/04/01 00:26:03;;;;;;;1.60;0.70;;;;;;;;;;6215441;23;20000;-86
2024/04/01 00:28:28;;;;;;;1.48;0.50;;;;;;;;;;6215870;23;20226;-86
2024/04/01 00:30:53;;;;;;;1.00;0.60;;;;;;;;;;6215127;23;20424;-86
2024/04/01 00:33:19;;;;;;;0.53;0.43;;;;;;;;;;6215434;23;20218;-86
2024/04/01 00:35:45;;;;;;;0.90;0.67;;;;;;;;;;6215261;23;20222;-87
2024/04/01 00:38:10;;;;;;;2.53;1.00;;;;;;;;;;6215090;23;20501;-87
2024/04/01 00:40:36;;;;;;;1.97;0.77;;;;;;;;;;6215512;23;20347;-86
2024/04/01 00:43:04;;;;;;;2.05;0.70;;;;;;;;;;6215066;23;20349;-86
2024/04/01 00:45:30;;;;;;;0.93;0.40;;;;;;;;;;6215139;23;20320;-86
2024/04/01 00:47:56;;;;;;;1.33;0.40;;;;;;;;;;6215129;23;19997;-86
2024/04/01 00:50:21;;;;;;;0.75;0.28;;;;;;;;;;6214977;23;20568;-87
2024/04/01 00:52:46;;;;;;;1.13;0.30;;;;;;;;;;6215038;23;20024;-86
2024/04/01 00:55:12;;;;;;;0.40;0.30;;;;;;;;;;6215021;23;20313;-87
2024/04/01 00:57:37;;;;;;;2.22;0.65;;;;;;;;;;6214690;23;20705;-86
2024/04/01 01:00:02;;;;;;;2.17;0.65;;;;;;;;;;6215011;23;19993;-87
2024/04/01 01:02:29;;;;;;;1.15;0.50;;;;;;;;;;6214893;23;20004;-87
2024/04/01 01:04:54;;;;;;;0.85;0.52;;;;;;;;;;6214862;23;20347;-87
2024/04/01 01:07:20;;;;;;;0.57;0.40;;;;;;;;;;6214859;23;20084;-87
2024/04/01 01:09:46;;;;;;;1.05;0.40;;;;;;;;;;6215171;23;19996;-87
2024/04/01 01:12:11;;;;;;;0.45;0.30;;;;;;;;;;6213035;23;20019;-87
2024/04/01 01:14:36;;;;;;;0.75;0.35;;;;;;;;;;6214730;23;19999;-87
2024/04/01 01:17:01;;;;;;;0.37;0.20;;;;;;;;;;6214617;23;20446;-87
2024/04/01 01:19:27;;;;;;;1.98;0.38;;;;;;;;;;6214785;23;20230;-87
2024/04/01 01:22:05;;;;;;;0.35;0.20;;;;;;;;;;6213342;23;20021;-87
2024/04/01 01:24:32;;;;;;;0.40;0.30;;;;;;;;;;6214768;23;20334;-87
2024/04/01 01:26:57;;;;;;;1.95;0.30;;;;;;;;;;6214566;23;20080;-87
2024/04/01 01:29:23;;;;;;;0.85;0.20;;;;;;;;;;6214522;23;20036;-87
2024/04/01 01:31:48;;;;;;;0.60;0.20;;;;;;;;;;6213981;23;20012;-87
2024/04/01 01:34:13;;;;;;;1.20;0.40;;;;;;;;;;6214615;23;20225;-87
2024/04/01 01:36:38;;;;;;;1.43;0.50;;;;;;;;;;6214694;23;20079;-87
2024/04/01 01:39:05;;;;;;;1.53;0.60;;;;;;;;;;6214515;23;20282;-87
2024/04/01 01:41:30;;;;;;;2.35;0.60;;;;;;;;;;6214583;23;20206;-87
2024/04/01 01:43:56;;;;;;;2.28;1.10;;;;;;;;;;6214522;23;19995;-87
2024/04/01 01:46:21;;;;;;;0.50;0.30;;;;;;;;;;6187768;23;20004;-87
2024/04/01 01:48:46;;;;;;;0.90;0.50;;;;;;;;;;6214453;23;19997;-87
2024/04/01 01:51:11;;;;;;;0.77;0.33;;;;;;;;;;6214257;23;20040;-87
2024/04/01 01:53:37;;;;;;;0.45;0.20;;;;;;;;;;6214349;23;20542;-87
2024/04/01 01:56:02;;;;;;;0.80;0.30;;;;;;;;;;6214410;23;20359;-87
2024/04/01 01:58:27;;;;;;;2.58;0.40;;;;;;;;;;6214406;23;19992;-87
2024/04/01 02:00:52;;;;;;;4.53;0.52;;;;;;;;;;6187619;23;20001;-87
2024/04/01 02:03:17;;;;;;;0.43;0.30;;;;;;;;;;6214277;23;20419;-87
2024/04/01 02:05:43;;;;;;;0.53;0.30;;;;;;;;;;6214191;23;20223;-87
2024/04/01 02:08:08;;;;;;;0.52;0.43;;;;;;;;;;6187803;23;20225;-87
2024/04/01 02:10:35;;;;;;;1.60;0.82;;;;;;;;;;6214370;23;20062;-87
2024/04/01 02:13:02;;;;;;;0.50;0.40;;;;;;;;;;6214296;23;20427;-87
2024/04/01 02:15:27;;;;;;;10.73;0.70;;;;;;;;;;6214068;23;20075;-86
2024/04/01 02:17:53;;;;;;;1.00;0.50;;;;;;;;;;6214077;23;20028;-87
2024/04/01 02:20:19;;;;;;;1.80;0.47;;;;;;;;;;6214285;23;20253;-87
2024/04/01 02:22:44;;;;;;;1.23;0.38;;;;;;;;;;6214142;23;19992;-87
2024/04/01 02:25:11;;;;;;;4.40;0.70;;;;;;;;;;6214462;23;20110;-87
2024/04/01 02:27:37;;;;;;;1.75;0.77;;;;;;;;;;6213983;23;20342;-87
2024/04/01 02:30:02;;;;;;;2.30;0.75;;;;;;;;;;6213951;23;20099;-87
2024/04/01 02:32:27;;;;;;;1.25;0.60;;;;;;;;;;6213938;23;20411;-87
2024/04/01 02:34:52;;;;;;;1.50;0.87;;;;;;;;;;6214161;23;20343;-87
2024/04/01 02:37:18;;;;;;;1.90;0.73;;;;;;;;;;6214056;23;20665;-87
2024/04/01 02:39:43;;;;;;;1.53;1.10;;;;;;;;;;6214040;23;20096;-87
2024/04/01 02:42:08;;;;;;;1.83;0.97;;;;;;;;;;6213958;23;20623;-87
2024/04/01 02:44:33;;;;;;;3.95;1.45;;;;;;;;;;6212318;23;20226;-87
2024/04/01 02:46:59;;;;;;;4.53;1.20;;;;;;;;;;6213955;23;20000;-87
2024/04/01 02:49:24;;;;;;;1.87;1.10;;;;;;;;;;6213990;23;19996;-87
2024/04/01 02:51:49;;;;;;;7.73;1.50;;;;;;;;;;6187239;23;20254;-87
2024/04/01 02:54:15;;;;;;;3.57;1.40;;;;;;;;;;6214104;23;20226;-87
2024/04/01 02:56:40;;;;;;;5.57;1.33;;;;;;;;;;6213896;23;20229;-87
2024/04/01 02:59:09;;;;;;;2.92;1.40;;;;;;;;;;6213880;23;20000;-87
2024/04/01 03:01:34;;;;;;;4.53;1.38;;;;;;;;;;6214168;23;20003;-87
2024/04/01 03:04:00;;;;;;;6.00;2.00;;;;;;;;;;6213837;23;20020;-87
2024/04/01 03:06:26;;;;;;;4.50;1.88;;;;;;;;;;6213814;23;20416;-87
2024/04/01 03:08:52;;;;;;;5.18;1.38;;;;;;;;;;6213905;23;20320;-87
2024/04/01 03:11:17;;;;;;;6.23;1.10;;;;;;;;;;6213872;23;20486;-87
2024/04/01 03:13:42;;;;;;;6.83;1.43;;;;;;;;;;6214113;23;20218;-87
2024/04/01 03:16:07;;;;;;;5.40;1.50;;;;;;;;;;6213623;23;20226;-87
2024/04/01 03:18:32;;;;;;;2.47;1.40;;;;;;;;;;6213909;23;20229;-86
2024/04/01 03:20:58;;;;;;;6.22;1.42;;;;;;;;;;6213814;23;20551;-86
2024/04/01 03:23:23;;;;;;;3.17;1.40;;;;;;;;;;6213770;23;20072;-87
2024/04/01 03:25:49;;;;;;;7.70;1.63;;;;;;;;;;6213542;23;20001;-87
2024/04/01 03:28:14;;;;;;;3.72;1.33;;;;;;;;;;6214021;23;20347;-87
2024/04/01 03:30:40;;;;;;;4.07;1.00;;;;;;;;;;6187239;23;20159;-87
2024/04/01 03:33:06;;;;;;;3.13;1.70;;;;;;;;;;6213860;23;20246;-86
2024/04/01 03:35:31;;;;;;;3.25;1.38;;;;;;;;;;6213853;23;20079;-87
2024/04/01 03:37:57;;;;;;;6.25;1.15;;;;;;;;;;6213621;23;20000;-87
2024/04/01 03:40:22;;;;;;;1.30;1.20;;;;;;;;;;6213904;23;20059;-86
2024/04/01 03:42:47;;;;;;;2.90;1.20;;;;;;;;;;6213923;23;20677;-87
2024/04/01 03:45:12;;;;;;;3.58;1.30;;;;;;;;;;6213652;23;20218;-87
2024/04/01 03:47:38;;;;;;;4.18;0.85;;;;;;;;;;6213911;23;20391;-87
2024/04/01 03:50:05;;;;;;;5.93;1.50;;;;;;;;;;6213614;23;19997;-86
2024/04/01 03:52:30;;;;;;;8.70;2.05;;;;;;;;;;6213775;23;20213;-86
2024/04/01 03:54:55;;;;;;;1.88;1.00;;;;;;;;;;6215211;23;20319;-87
2024/04/01 03:57:20;;;;;;;0.67;0.50;;;;;;;;;;6215630;23;20001;-86
2024/04/01 03:59:46;;;;;;;3.37;0.80;;;;;;;;;;6215502;23;20222;-86
2024/04/01 04:02:11;;;;;;;2.65;0.80;;;;;;;;;;6215524;23;20234;-87
2024/04/01 04:04:36;;;;;;;2.83;0.50;;;;;;;;;;6215507;23;20000;-86
2024/04/01 04:07:01;;;;;;;2.83;0.50;;;;;;;;;;6215523;23;20287;-87
2024/04/01 04:09:27;;;;;;;3.20;0.60;;;;;;;;;;6215572;23;20613;-86
2024/04/01 04:11:52;;;;;;;2.67;0.68;;;;;;;;;;6215148;23;20767;-87
2024/04/01 04:14:18;;;;;;;2.30;0.68;;;;;;;;;;6215650;23;19997;-87
2024/04/01 04:16:47;;;;;;;2.78;0.47;;;;;;;;;;6188546;23;20007;-86
2024/04/01 04:19:13;;;;;;;1.60;0.65;;;;;;;;;;6215312;23;20072;-87
2024/04/01 04:21:38;;;;;;;2.63;0.47;;;;;;;;;;6215209;23;20298;-87
2024/04/01 04:24:04;;;;;;;1.67;0.40;;;;;;;;;;6215490;23;20489;-87
2024/04/01 04:26:30;;;;;;;1.77;0.55;;;;;;;;;;6215217;23;20027;-87
2024/04/01 04:28:55;;;;;;;0.52;0.30;;;;;;;;;;6188518;23;20412;-87
2024/04/01 04:31:20;;;;;;;1.75;0.30;;;;;;;;;;6215323;23;20351;-87
2024/04/01 04:33:46;;;;;;;4.18;0.80;;;;;;;;;;6215702;23;19997;-87
2024/04/01 04:36:11;;;;;;;1.83;0.43;;;;;;;;;;6215103;23;20004;-87
2024/04/01 04:38:37;;;;;;;0.80;0.40;;;;;;;;;;6215018;23;20007;-87
2024/04/01 04:41:04;;;;;;;6.40;1.27;;;;;;;;;;6188159;23;20030;-85
2024/04/01 04:43:29;;;;;;;2.45;0.45;;;;;;;;;;6215569;23;20412;-87
2024/04/01 04:45:54;;;;;;;3.05;1.15;;;;;;;;;;6215044;23;20039;-87
2024/04/01 04:48:19;;;;;;;1.50;0.57;;;;;;;;;;6215133;23;19997;-87
2024/04/01 04:50:45;;;;;;;6.40;0.60;;;;;;;;;;6188331;23;20250;-87
2024/04/01 04:53:10;;;;;;;1.00;0.50;;;;;;;;;;6214776;23;20520;-87
2024/04/01 04:55:35;;;;;;;2.50;0.50;;;;;;;;;;6215021;23;20276;-87
2024/04/01 04:58:00;;;;;;;2.13;0.70;;;;;;;;;;6214846;23;20260;-87
2024/04/01 05:00:26;;;;;;;3.28;0.50;;;;;;;;;;6214940;23;20222;-87
2024/04/01 05:02:51;;;;;;;2.20;0.60;;;;;;;;;;6215333;23;19996;-87
2024/04/01 05:05:20;;;;;;;2.63;0.70;;;;;;;;;;6188117;23;20431;-87
2024/04/01 05:07:45;;;;;;;2.10;0.80;;;;;;;;;;6214443;23;20009;-87
2024/04/01 05:10:11;;;;;;;3.00;0.88;;;;;;;;;;6214686;23;20003;-87
2024/04/01 05:12:36;;;;;;;3.13;0.70;;;;;;;;;;6214778;23;19997;-87
2024/04/01 05:15:02;;;;;;;4.65;0.63;;;;;;;;;;6214726;23;19996;-87
2024/04/01 05:17:27;;;;;;;0.68;0.25;;;;;;;;;;6214689;23;19996;-87
2024/04/01 05:19:52;;;;;;;0.40;0.30;;;;;;;;;;6214892;23;20001;-87
2024/04/01 05:22:18;;;;;;;0.80;0.50;;;;;;;;;;6214795;23;20237;-87
2024/04/01 05:24:44;;;;;;;2.17;0.55;;;;;;;;;;6214473;23;20226;-87
2024/04/01 05:27:09;;;;;;;2.67;0.70;;;;;;;;;;6214678;23;20000;-87
2024/04/01 05:29:34;;;;;;;1.70;0.47;;;;;;;;;;6214774;23;20242;-87
2024/04/01 05:31:59;;;;;;;5.67;0.77;;;;;;;;;;6214506;23;20008;-87
2024/04/01 05:34:26;;;;;;;1.03;0.53;;;;;;;;;;6214323;23;20584;-87
2024/04/01 05:36:51;;;;;;;4.57;0.50;;;;;;;;;;6214601;23;20246;-87
2024/04/01 05:39:16;;;;;;;1.30;0.65;;;;;;;;;;6214517;23;20011;-87
2024/04/01 05:41:41;;;;;;;1.17;0.52;;;;;;;;;;6188313;23;20004;-87
2024/04/01 05:44:07;;;;;;;2.00;0.53;;;;;;;;;;6214374;23;19993;-87
2024/04/01 05:46:32;;;;;;;3.60;0.67;;;;;;;;;;6214278;23;20237;-87
2024/04/01 05:48:57;;;;;;;4.63;0.70;;;;;;;;;;6214561;23;20268;-86
2024/04/01 05:51:22;;;;;;;2.22;0.63;;;;;;;;;;6214302;23;20304;-87
2024/04/01 05:53:49;;;;;;;1.55;0.55;;;;;;;;;;6187713;23;20080;-87
2024/04/01 05:56:14;;;;;;;0.80;0.50;;;;;;;;;;6214235;23;20024;-87
2024/04/01 05:58:39;;;;;;;3.13;0.87;;;;;;;;;;6214490;23;20008;-87
2024/04/01 06:01:05;;;;;;;5.70;0.70;;;;;;;;;;6187663;23;20238;-87
2024/04/01 06:03:30;;;;;;;0.70;0.40;;;;;;;;;;6214473;23;20003;-87
2024/04/01 06:05:55;;;;;;;2.80;0.50;;;;;;;;;;6214268;23;20024;-87
2024/04/01 06:08:21;;;;;;;5.95;0.70;;;;;;;;;;6187640;23;20258;-87
2024/04/01 06:10:46;;;;;;;1.42;0.52;;;;;;;;;;6214149;23;20004;-87
2024/04/01 06:13:11;;;;;;;2.97;0.93;;;;;;;;;;6213990;23;20051;-87
2024/04/01 06:15:36;;;;;;;4.30;0.70;;;;;;;;;;6214200;23;20047;-87
2024/04/01 06:18:02;;;;;;;1.98;0.90;;;;;;;;;;6213768;23;19997;-87
2024/04/01 06:20:27;;;;;;;2.95;0.73;;;;;;;;;;6214337;23;20028;-87
2024/04/01 06:22:52;;;;;;;2.42;0.90;;;;;;;;;;6214118;23;20004;-87
2024/04/01 06:25:18;;;;;;;2.28;0.73;;;;;;;;;;6214117;23;20442;-88
2024/04/01 06:27:43;;;;;;;5.78;0.80;;;;;;;;;;6214043;23;20001;-87
2024/04/01 06:30:08;;;;;;;0.88;0.60;;;;;;;;;;6214089;23;20070;-87
2024/04/01 06:32:34;;;;;;;3.25;0.70;;;;;;;;;;6213812;23;20007;-87
2024/04/01 06:34:59;;;;;;;1.33;0.50;;;;;;;;;;6214213;23;20004;-87
2024/04/01 06:37:24;;;;;;;2.08;0.77;;;;;;;;;;6214260;23;19996;-87
2024/04/01 06:39:53;;;;;;;4.30;0.57;;;;;;;;;;6213911;23;20005;-87
2024/04/01 06:42:18;;;;;;;1.23;1.00;;;;;;;;;;6214146;23;20426;-87
2024/04/01 06:44:45;;;;;;;1.77;0.83;;;;;;;;;;6213831;23;20067;-87
2024/04/01 06:47:11;;;;;;;2.20;0.65;;;;;;;;;;6213817;23;20248;-87
2024/04/01 06:49:37;;;;;;;2.22;1.00;;;;;;;;;;6214010;23;19996;-88
2024/04/01 06:52:03;;;;;;;8.85;1.08;;;;;;;;;;6213790;23;20009;-88
2024/04/01 06:54:28;;;;;;;5.28;1.17;;;;;;;;;;6214200;23;20048;-88
2024/04/01 06:56:53;;;;;;;2.13;1.00;;;;;;;;;;6213668;23;20006;-88
2024/04/01 06:59:18;;;;;;;3.27;1.40;;;;;;;;;;6213991;23;20223;-88
2024/04/01 07:01:43;;;;;;;6.57;1.50;;;;;;;;;;6213934;23;20222;-88
2024/04/01 07:04:11;;;;;;;3.67;1.60;;;;;;;;;;6213595;23;20024;-88
2024/04/01 07:06:36;;;;;;;7.55;1.50;;;;;;;;;;6213788;23;20223;-87
2024/04/01 07:09:02;;;;;;;8.73;1.42;;;;;;;;;;6213896;23;19996;-89
2024/04/01 07:11:28;;;;;;;6.57;1.27;;;;;;;;;;6214005;23;20015;-88
2024/04/01 07:13:53;;;;;;;7.32;0.88;;;;;;;;;;6214151;23;20024;-88
2024/04/01 07:16:18;;;;;;;3.40;0.90;;;;;;;;;;6213961;23;20006;-89
2024/04/01 07:18:43;;;;;;;3.67;0.90;;;;;;;;;;6213836;23;19997;-88
2024/04/01 07:21:09;;;;;;;4.67;0.80;;;;;;;;;;6214028;23;20676;-89
2024/04/01 07:23:34;;;;;;;2.83;0.60;;;;;;;;;;6213748;23;20211;-88
2024/04/01 07:25:59;;;;;;;3.15;0.93;;;;;;;;;;6187950;23;20234;-89
2024/04/01 07:28:24;;;;;;;4.43;0.90;;;;;;;;;;6188426;23;20495;-89
2024/04/01 07:30:49;;;;;;;8.00;2.60;;;;;;;;;;6189168;23;20581;-89
2024/04/01 07:33:15;;;;;;;2.87;0.90;;;;;;;;;;6216480;23;20537;-89
2024/04/01 07:35:40;;;;;;;4.45;0.90;;;;;;;;;;6189238;23;20699;-89
2024/04/01 07:38:05;;;;;;;7.00;1.20;;;;;;;;;;6215831;23;20000;-90
2024/04/01 07:40:31;;;;;;;4.90;1.15;;;;;;;;;;6216269;23;20597;-89
2024/04/01 07:42:56;;;;;;;4.72;0.98;;;;;;;;;;6215999;23;20007;-89
2024/04/01 07:45:21;;;;;;;5.77;1.00;;;;;;;;;;6216127;23;20003;-89
2024/04/01 07:47:46;;;;;;;5.25;1.25;;;;;;;;;;6215849;23;20214;-90
2024/04/01 07:50:12;;;;;;;5.80;1.17;;;;;;;;;;6214369;23;20471;-90
2024/04/01 07:52:37;;;;;;;4.32;0.80;;;;;;;;;;6214547;23;20234;-89
2024/04/01 07:55:02;;;;;;;7.25;1.50;;;;;;;;;;6214780;23;20415;-90
2024/04/01 07:57:31;;;;;;;4.10;1.15;;;;;;;;;;6214587;23;20032;-90
2024/04/01 07:59:57;;;;;;;4.05;1.52;;;;;;;;;;6214292;23;20066;-90
2024/04/01 08:02:22;;;;;;;4.13;1.33;;;;;;;;;;6215469;23;20427;-90
2024/04/01 08:04:48;;;;;;;3.55;1.00;;;;;;;;;;6216153;23;20447;-90
2024/04/01 08:07:14;;;;;;;6.53;1.65;;;;;;;;;;6216058;23;20023;-91
2024/04/01 08:09:39;;;;;;;6.22;1.50;;;;;;;;;;6216191;23;19996;-90
2024/04/01 08:12:05;;;;;;;8.25;0.95;;;;;;;;;;6215846;23;20012;-91
2024/04/01 08:14:30;;;;;;;1.95;0.52;;;;;;;;;;6216054;23;19993;-91
2024/04/01 08:16:55;;;;;;;3.35;0.82;;;;;;;;;;6215897;23;20001;-91
2024/04/01 08:19:20;;;;;;;4.97;0.70;;;;;;;;;;6215750;23;20035;-91
2024/04/01 08:21:45;;;;;;;3.00;0.60;;;;;;;;;;6215517;23;20215;-91
2024/04/01 08:24:11;;;;;;;3.27;0.60;;;;;;;;;;6215566;23;20229;-91
2024/04/01 08:26:36;;;;;;;7.93;0.80;;;;;;;;;;6215960;23;20225;-91
2024/04/01 08:29:01;;;;;;;2.42;0.77;;;;;;;;;;6189442;23;20225;-91
2024/04/01 08:31:27;;;;;;;4.18;0.70;;;;;;;;;;6215771;23;20044;-92
2024/04/01 08:33:52;;;;;;;4.57;0.63;;;;;;;;;;6215342;23;19993;-91
2024/04/01 08:36:17;;;;;;;9.57;1.80;;;;;;;;;;6213530;23;20584;-91
2024/04/01 08:38:43;;;;;;;2.65;0.60;;;;;;;;;;6215290;23;20223;-91
2024/04/01 08:41:18;;;;;;;6.72;0.80;;;;;;;;;;6215293;23;20024;-91
2024/04/01 08:43:45;;;;;;;3.15;0.50;;;;;;;;;;6215469;23;19992;-91
2024/04/01 08:46:11;;;;;;;2.88;0.43;;;;;;;;;;6215188;23;20020;-91
2024/04/01 08:48:39;;;;;;;7.28;1.08;;;;;;;;;;6188732;23;20359;-92
2024/04/01 08:51:05;;;;;;;5.10;1.00;;;;;;;;;;6188687;23;20453;-91
2024/04/01 08:53:49;;;;;;;2.17;0.60;;;;;;;;;;6215423;23;20079;-91
2024/04/01 08:56:15;;;;;;;4.32;0.60;;;;;;;;;;6188900;23;19996;-91
2024/04/01 08:58:41;;;;;;;6.47;1.10;;;;;;;;;;6215172;23;20047;-91
2024/04/01 09:01:06;;;;;;;3.08;0.60;;;;;;;;;;6213705;23;20055;-91
2024/04/01 09:03:31;;;;;;;5.90;0.60;;;;;;;;;;6215026;23;19993;-91
2024/04/01 09:05:57;;;;;;;7.80;0.87;;;;;;;;;;6213477;23;20450;-91
2024/04/01 09:08:27;;;;;;;5.82;1.00;;;;;;;;;;6215202;23;20210;-92
2024/04/01 09:10:52;;;;;;;6.35;1.27;;;;;;;;;;6215022;23;20000;-91
2024/04/01 09:13:18;;;;;;;5.45;1.23;;;;;;;;;;6188311;23;20084;-91
2024/04/01 09:15:44;;;;;;;2.92;0.52;;;;;;;;;;6213139;23;20360;-91
2024/04/01 09:18:13;;;;;;;4.55;0.60;;;;;;;;;;6213319;23;20035;-91
2024/04/01 09:20:42;;;;;;;1.80;0.43;;;;;;;;;;6214878;23;20023;-91
2024/04/01 09:23:07;;;;;;;1.90;0.43;;;;;;;;;;6213631;23;20004;-91
2024/04/01 09:25:33;;;;;;;4.50;0.60;;;;;;;;;;6214636;23;20003;-91
2024/04/01 09:27:58;;;;;;;3.33;0.47;;;;;;;;;;6214446;23;20234;-91
2024/04/01 09:30:24;;;;;;;5.50;0.70;;;;;;;;;;6214331;23;20027;-91
2024/04/01 09:32:49;;;;;;;5.53;0.75;;;;;;;;;;6214762;23;20055;-91
2024/04/01 09:35:14;;;;;;;7.18;1.17;;;;;;;;;;6213146;23;20001;-91
2024/04/01 09:37:39;;;;;;;4.40;0.70;;;;;;;;;;6214436;23;20293;-91
2024/04/01 09:40:05;;;;;;;9.65;0.70;;;;;;;;;;6214788;23;20057;-91
2024/04/01 09:42:30;;;;;;;3.83;0.43;;;;;;;;;;6214528;23;19995;-91
2024/04/01 09:44:55;;;;;;;2.03;0.30;;;;;;;;;;6187888;23;20004;-91
2024/04/01 09:47:20;;;;;;;3.37;0.73;;;;;;;;;;6214448;23;20066;-92
2024/04/01 09:49:47;;;;;;;8.90;0.70;;;;;;;;;;6214906;23;20250;-91
2024/04/01 09:52:13;;;;;;;2.92;0.73;;;;;;;;;;6213962;23;20246;-91
2024/04/01 09:54:38;;;;;;;2.45;0.32;;;;;;;;;;6214330;23;20000;-91
2024/04/01 09:57:06;;;;;;;3.03;0.55;;;;;;;;;;6214456;23;20020;-91
2024/04/01 09:59:37;;;;;;;3.63;0.63;;;;;;;;;;6214483;23;20071;-90
2024/04/01 10:02:21;;;;;;;1.15;0.30;;;;;;;;;;6187686;23;20411;-91
2024/04/01 10:05:06;;;;;;;2.53;0.55;;;;;;;;;;6187916;23;20248;-91
2024/04/01 10:07:49;;;;;;;3.92;0.50;;;;;;;;;;6214264;23;20304;-91
2024/04/01 10:10:32;;;;;;;5.03;0.77;;;;;;;;;;6214458;23;19993;-92
2024/04/01 10:13:16;;;;;;;4.00;0.30;;;;;;;;;;6214430;23;20035;-91
2024/04/01 10:16:02;;;;;;;2.78;0.40;;;;;;;;;;6189206;23;20309;-91
2024/04/01 10:18:46;;;;;;;2.45;0.47;;;;;;;;;;6157014;23;19997;-92
2024/04/01 10:21:14;;;;;;;3.85;0.50;;;;;;;;;;6214239;23;20035;-92
2024/04/01 10:24:05;;;;;;;1.25;0.30;;;;;;;;;;6187972;23;20000;-91
2024/04/01 10:26:39;;;;;;;5.25;0.70;;;;;;;;;;6164475;23;19997;-92
2024/04/01 10:29:24;;;;;;;4.22;0.50;;;;;;;;;;6187661;23;20022;-92
2024/04/01 10:31:52;;;;;;;5.93;0.85;;;;;;;;;;6187358;23;20059;-92
2024/04/01 10:34:27;;;;;;;5.28;0.60;;;;;;;;;;6187602;23;20067;-93
2024/04/01 10:37:06;;;;;;;7.93;0.88;;;;;;;;;;6187456;23;20031;-92
2024/04/01 10:39:49;;;;;;;6.10;0.80;;;;;;;;;;6161994;23;20001;-92
2024/04/01 10:42:33;;;;;;;4.15;0.43;;;;;;;;;;6184038;23;20417;-92
2024/04/01 10:45:08;;;;;;;1.88;0.25;;;;;;;;;;6157422;23;20376;-91
2024/04/01 10:47:51;;;;;;;6.32;1.27;;;;;;;;;;6157446;23;20028;-91
2024/04/01 10:50:19;;;;;;;1.63;0.30;;;;;;;;;;6157665;23;20005;-90
2024/04/01 10:52:51;;;;;;;4.55;0.50;;;;;;;;;;6183890;23;20029;-91
2024/04/01 10:55:26;;;;;;;5.15;1.02;;;;;;;;;;6184646;23;20024;-91
2024/04/01 10:58:04;;;;;;;3.55;0.52;;;;;;;;;;6157868;23;20001;-91
2024/04/01 11:00:35;;;;;;;5.82;0.88;;;;;;;;;;6158324;23;19997;-90
2024/04/01 11:03:06;;;;;;;3.65;0.30;;;;;;;;;;6185115;23;20005;-91
2024/04/01 11:05:54;;;;;;;4.18;0.55;;;;;;;;;;6185899;23;19993;-90
2024/04/01 11:08:35;;;;;;;1.98;0.30;;;;;;;;;;6186051;23;20466;-91
2024/04/01 11:11:19;;;;;;;2.72;0.68;;;;;;;;;;6159381;23;20009;-91
2024/04/01 11:13:45;;;;;;;2.15;0.43;;;;;;;;;;6186046;23;20080;-91
2024/04/01 11:16:11;;;;;;;3.38;0.60;;;;;;;;;;6186109;23;20323;-90
2024/04/01 11:18:54;;;;;;;4.35;0.60;;;;;;;;;;6159575;23;20008;-91
2024/04/01 11:21:20;;;;;;;3.55;0.65;;;;;;;;;;6159438;23;19997;-91
2024/04/01 11:24:03;;;;;;;4.27;0.83;;;;;;;;;;6186041;23;20004;-92
2024/04/01 11:26:47;;;;;;;3.85;0.50;;;;;;;;;;6185843;23;19997;-91
2024/04/01 11:29:30;;;;;;;3.10;0.30;;;;;;;;;;6185909;23;20000;-91
2024/04/01 11:32:00;;;;;;;3.60;0.93;;;;;;;;;;6159116;23;20510;-92
2024/04/01 11:34:31;;;;;;;3.53;0.80;;;;;;;;;;6185911;23;20001;-91
2024/04/01 11:37:07;;;;;;;1.40;0.55;;;;;;;;;;6159019;23;20005;-90
2024/04/01 11:39:34;;;;;;;1.70;0.52;;;;;;;;;;6184503;23;20010;-91
2024/04/01 11:42:01;;;;;;;3.10;0.57;;;;;;;;;;6215540;23;20064;-91
2024/04/01 11:44:28;;;;;;;4.38;0.45;;;;;;;;;;6214431;23;20079;-91
2024/04/01 11:46:55;;;;;;;2.97;0.60;;;;;;;;;;6189192;23;20000;-91
2024/04/01 11:49:23;;;;;;;3.28;0.35;;;;;;;;;;6189031;23;20009;-91
2024/04/01 11:51:50;;;;;;;2.90;0.70;;;;;;;;;;6215461;23;20004;-91
2024/04/01 11:54:27;;;;;;;5.82;0.65;;;;;;;;;;6215934;23;20427;-91
2024/04/01 11:56:53;;;;;;;4.00;0.50;;;;;;;;;;6188689;23;20439;-92
2024/04/01 11:59:27;;;;;;;4.15;0.22;;;;;;;;;;6215705;23;19996;-91
2024/04/01 12:01:52;;;;;;;5.25;0.50;;;;;;;;;;6188672;23;19997;-92
2024/04/01 12:04:18;;;;;;;3.23;0.50;;;;;;;;;;6188862;23;20003;-92
2024/04/01 12:06:45;;;;;;;4.07;0.60;;;;;;;;;;6215494;23;20222;-92
2024/04/01 12:09:12;;;;;;;4.10;0.75;;;;;;;;;;6213919;23;20506;-91
2024/04/01 12:11:42;;;;;;;3.25;0.73;;;;;;;;;;6188735;23;20009;-91
2024/04/01 12:14:09;;;;;;;5.10;0.80;;;;;;;;;;6214949;23;19999;-91
2024/04/01 12:16:34;;;;;;;3.75;0.90;;;;;;;;;;6216068;23;20236;-91
2024/04/01 12:19:01;;;;;;;4.93;1.15;;;;;;;;;;6216284;23;20617;-91
2024/04/01 12:21:28;;;;;;;3.13;0.30;;;;;;;;;;6216200;23;19993;-90
2024/04/01 12:23:54;;;;;;;3.25;0.60;;;;;;;;;;6216119;23;20067;-91
2024/04/01 12:26:19;;;;;;;2.10;0.30;;;;;;;;;;6215957;23;20027;-91
2024/04/01 12:28:45;;;;;;;1.98;0.38;;;;;;;;;;6216133;23;20383;-91
2024/04/01 12:31:11;;;;;;;5.53;0.75;;;;;;;;;;6189583;23;20024;-91
2024/04/01 12:33:36;;;;;;;5.57;0.98;;;;;;;;;;6214699;23;20024;-91
2024/04/01 12:36:02;;;;;;;3.42;0.30;;;;;;;;;;6216132;23;20020;-91
2024/04/01 12:38:31;;;;;;;3.85;0.40;;;;;;;;;;6215930;23;20005;-90
2024/04/01 12:40:56;;;;;;;3.83;0.70;;;;;;;;;;6215839;23;20001;-91
2024/04/01 12:43:26;;;;;;;5.35;0.50;;;;;;;;;;6189171;23;20485;-91
2024/04/01 12:45:52;;;;;;;3.08;0.50;;;;;;;;;;6213870;23;20495;-91
2024/04/01 12:48:18;;;;;;;2.17;0.40;;;;;;;;;;6215120;23;19989;-91
2024/04/01 12:50:47;;;;;;;3.80;0.88;;;;;;;;;;6215767;23;20454;-91
2024/04/01 12:53:18;;;;;;;5.47;0.30;;;;;;;;;;6215920;23;20068;-91
2024/04/01 12:55:47;;;;;;;3.15;0.63;;;;;;;;;;6189509;23;20055;-91
2024/04/01 12:58:12;;;;;;;1.60;0.20;;;;;;;;;;6215714;23;20348;-91
2024/04/01 13:00:39;;;;;;;2.00;0.30;;;;;;;;;;6189278;23;20067;-90
2024/04/01 13:03:13;;;;;;;3.65;0.50;;;;;;;;;;6189350;23;20024;-91
2024/04/01 13:05:38;;;;;;;3.08;0.50;;;;;;;;;;6189246;23;20000;-91
2024/04/01 13:08:10;;;;;;;8.60;1.03;;;;;;;;;;6189197;23;20054;-91
2024/04/01 13:10:44;;;;;;;5.70;0.40;;;;;;;;;;6215780;23;20000;-91
2024/04/01 13:13:11;;;;;;;2.90;0.32;;;;;;;;;;6215831;23;20076;-91
2024/04/01 13:15:57;;;;;;;3.53;0.52;;;;;;;;;;6188964;23;20000;-91
2024/04/01 13:18:25;;;;;;;2.00;0.40;;;;;;;;;;6215732;23;19996;-90
2024/04/01 13:21:13;;;;;;;0.93;0.22;;;;;;;;;;6215536;23;19996;-91
2024/04/01 13:23:42;;;;;;;1.52;0.30;;;;;;;;;;6213981;23;20004;-91
2024/04/01 13:26:19;;;;;;;2.15;0.32;;;;;;;;;;6215420;23;20010;-91
2024/04/01 13:28:48;;;;;;;0.32;0.13;;;;;;;;;;6215557;23;20001;-90
2024/04/01 13:31:14;;;;;;;0.90;0.30;;;;;;;;;;6215425;23;20023;-91
2024/04/01 13:33:55;;;;;;;0.67;0.20;;;;;;;;;;6189205;23;20392;-91
2024/04/01 13:36:26;;;;;;;0.52;0.10;;;;;;;;;;6215322;23;20087;-91
2024/04/01 13:39:10;;;;;;;1.20;0.20;;;;;;;;;;6215591;23;20494;-90
2024/04/01 13:41:35;;;;;;;2.67;0.20;;;;;;;;;;6188745;23;20028;-90
2024/04/01 13:44:10;;;;;;;0.97;0.10;;;;;;;;;;6215649;23;20412;-90
2024/04/01 13:46:55;;;;;;;0.88;0.20;;;;;;;;;;6215608;23;20661;-90
2024/04/01 13:49:37;;;;;;;1.77;0.17;;;;;;;;;;6199101;23;19996;-90
2024/04/01 13:52:02;;;;;;;1.00;0.10;;;;;;;;;;6215392;23;20051;-90
2024/04/01 13:54:34;;;;;;;2.17;0.20;;;;;;;;;;6188775;23;19996;-90
2024/04/01 13:57:08;;;;;;;2.42;0.15;;;;;;;;;;6188647;23;20427;-90
2024/04/01 13:59:40;;;;;;;0.55;0.10;;;;;;;;;;6215227;23;20412;-90
2024/04/01 14:02:05;;;;;;;0.50;0.10;;;;;;;;;;6215194;23;20420;-90
2024/04/01 14:04:31;;;;;;;1.07;0.10;;;;;;;;;;6188648;23;20007;-90
2024/04/01 14:07:16;;;;;;;1.40;0.10;;;;;;;;;;6215100;23;20000;-90
2024/04/01 14:09:41;;;;;;;0.13;0.10;;;;;;;;;;6188936;23;20088;-91
2024/04/01 14:12:06;;;;;;;0.30;0.10;;;;;;;;;;6215314;23;20372;-90
2024/04/01 14:14:51;;;;;;;1.47;0.40;;;;;;;;;;6215178;23;19996;-91
2024/04/01 14:17:33;;;;;;;2.00;0.68;;;;;;;;;;6214144;23;20047;-90
2024/04/01 14:20:06;;;;;;;3.10;0.77;;;;;;;;;;6215092;23;20309;-91
2024/04/01 14:22:31;;;;;;;2.05;0.77;;;;;;;;;;6214996;23;20001;-91
2024/04/01 14:24:57;;;;;;;2.80;1.02;;;;;;;;;;6213560;23;20008;-90
2024/04/01 14:27:23;;;;;;;2.65;0.85;;;;;;;;;;6215186;23;20001;-91
2024/04/01 14:29:48;;;;;;;5.68;1.80;;;;;;;;;;6215187;23;20326;-90
2024/04/01 14:32:13;;;;;;;2.22;0.93;;;;;;;;;;6214464;23;20012;-90
2024/04/01 14:34:39;;;;;;;2.72;0.70;;;;;;;;;;6215058;23;20003;-91
2024/04/01 14:37:06;;;;;;;1.67;0.30;;;;;;;;;;6214882;23;20000;-91
2024/04/01 14:39:31;;;;;;;5.07;0.70;;;;;;;;;;6214804;23;20501;-90
2024/04/01 14:41:56;;;;;;;5.50;1.48;;;;;;;;;;6215041;23;20000;-90
2024/04/01 14:44:22;;;;;;;4.07;0.30;;;;;;;;;;6214716;23;20063;-91
2024/04/01 14:46:48;;;;;;;5.43;0.50;;;;;;;;;;6214810;23;20230;-90